Oakpark, Virginia
Current Conditions -  °F | °C
As of 12:15 PM on Thursday 27 Nov 2014 (Local Time) from KOMH Reporting Station
Broken Clouds Broken Clouds  
Wind Chill: 46°   Ceiling: 7000
Heat Index: 46°   Visibility: 10mi
Dew Point: 39°   Wind: 3mph
Humidity: 76%   Direction: 20°NNE
Pressure: 30.05"   Gusts: NA
Location:  38.37°N, 78.16°W
Report Text: KOMH 271715Z AUTO 02003KT 10SM SCT017 SCT047 BKN070 08/04 A3005 RMK AO2
Loading
Personal Weather Stations






























Interactive Weather Map New forecast layout! Learn more

10-Day Weather Forecast

Advertisements
Track Severe Weather on mobile